Time;durP1;ratioP1;P1;durP2;ratioP2;P2;SDS_P1;SDS_P2;PMS_P1;PMS_P2;Temp;Humidity;BMP_temperature;BMP_pressure;BME280_temperature;BME280_humidity;BME280_pressure;Samples;Min_cycle;Max_cycle;Signal;HPM_P1;HPM_P2
2023/01/29 00:01:54;;;;;;;16.57;11.90;;;;;;;2.61;86.66;96473.34;6095726;23;20160;-87
2023/01/29 00:07:14;;;;;;;17.73;12.03;;;;;;;2.63;86.56;96468.16;6092806;23;20180;-87
2023/01/29 00:09:50;;;;;;;17.63;13.33;;;;;;;2.66;86.59;96470.47;6095836;23;20210;-87
2023/01/29 00:12:27;;;;;;;16.90;12.50;;;;;;;2.64;86.82;96469.78;6096159;23;20572;-87
2023/01/29 00:15:05;;;;;;;20.07;12.67;;;;;;;2.65;86.66;96463.78;6094946;23;20699;-87
2023/01/29 00:17:48;;;;;;;14.97;12.23;;;;;;;2.68;86.74;96466.09;6096027;23;20167;-87
2023/01/29 00:20:16;;;;;;;16.50;11.40;;;;;;;2.60;86.33;96468.34;6095763;23;20176;-88
2023/01/29 00:22:42;;;;;;;15.20;11.97;;;;;;;2.59;86.46;96476.91;6095569;23;20199;-87
2023/01/29 00:25:12;;;;;;;15.87;11.93;;;;;;;2.63;86.07;96479.13;6095912;23;20195;-87
2023/01/29 00:27:42;;;;;;;14.47;11.07;;;;;;;2.67;86.02;96478.00;6095751;23;20175;-87
2023/01/29 00:30:29;;;;;;;15.57;10.87;;;;;;;2.66;86.02;96481.47;6095490;23;20200;-87
2023/01/29 00:33:23;;;;;;;16.67;12.67;;;;;;;2.67;85.84;96489.91;6095228;23;20164;-88
2023/01/29 00:35:58;;;;;;;15.00;11.57;;;;;;;2.66;85.98;96488.28;6079486;23;20204;-86
2023/01/29 00:47:29;;;;;;;12.90;10.57;;;;;;;2.65;84.98;96484.91;6095889;23;20326;-88
2023/01/29 00:50:20;;;;;;;13.50;10.67;;;;;;;2.61;84.17;96483.50;6096026;23;20259;-88
2023/01/29 00:52:50;;;;;;;12.60;10.03;;;;;;;2.56;84.80;96483.00;6095760;23;20219;-87
2023/01/29 00:55:20;;;;;;;14.70;11.40;;;;;;;2.58;84.80;96491.34;6095916;23;20180;-87
2023/01/29 00:57:53;;;;;;;15.07;10.90;;;;;;;2.60;85.27;96491.22;6096260;23;20169;-88
2023/01/29 01:00:34;;;;;;;14.00;10.93;;;;;;;2.62;85.00;96487.66;6095230;23;20171;-87
2023/01/29 01:03:26;;;;;;;12.90;10.27;;;;;;;2.66;84.78;96486.56;6093974;23;20212;-87
2023/01/29 01:06:11;;;;;;;14.37;10.60;;;;;;;2.67;84.41;96483.09;6095362;23;20545;-88
2023/01/29 01:11:24;;;;;;;13.63;11.20;;;;;;;2.65;84.64;96477.28;6095311;23;20211;-88
2023/01/29 01:14:13;;;;;;;15.00;11.33;;;;;;;2.69;84.40;96486.31;6095034;23;20215;-87
2023/01/29 01:16:45;;;;;;;14.97;10.87;;;;;;;2.72;83.96;96487.84;6094044;23;20177;-87
2023/01/29 01:19:23;;;;;;;14.07;11.00;;;;;;;2.69;84.04;96491.41;6094379;23;20552;-87
2023/01/29 01:22:20;;;;;;;12.20;10.57;;;;;;;2.69;83.81;96490.63;6095333;23;20183;-87
2023/01/29 01:25:06;;;;;;;12.70;10.23;;;;;;;2.69;83.59;96486.31;6095087;23;20636;-88
2023/01/29 01:27:41;;;;;;;13.43;10.50;;;;;;;2.69;83.64;96493.94;6095134;23;20222;-87
2023/01/29 01:30:29;;;;;;;12.33;10.33;;;;;;;2.70;83.53;96490.47;6094655;23;20180;-88
2023/01/29 01:33:05;;;;;;;13.63;9.87;;;;;;;2.68;83.28;96497.44;6094684;23;20176;-88
2023/01/29 01:35:42;;;;;;;14.73;9.93;;;;;;;2.66;83.14;96490.81;6094279;23;20188;-87
2023/01/29 01:38:14;;;;;;;12.37;9.80;;;;;;;2.67;83.18;96500.06;6095727;23;20202;-88
2023/01/29 01:40:46;;;;;;;12.90;9.80;;;;;;;2.69;82.84;96500.78;6095712;23;20216;-88
2023/01/29 01:43:14;;;;;;;11.23;9.63;;;;;;;2.69;82.95;96498.25;6095442;23;20596;-87
2023/01/29 01:45:45;;;;;;;11.63;9.37;;;;;;;2.69;82.74;96493.16;6094661;23;20199;-88
2023/01/29 01:48:18;;;;;;;11.93;9.37;;;;;;;2.70;82.70;96490.47;6095549;23;20283;-88
2023/01/29 01:51:21;;;;;;;11.93;9.20;;;;;;;2.70;82.25;96490.47;6095364;23;20196;-87
2023/01/29 01:54:01;;;;;;;12.37;9.80;;;;;;;2.71;81.87;96489.56;6095806;23;20160;-87
2023/01/29 01:56:40;;;;;;;11.93;9.50;;;;;;;2.73;81.91;96494.53;6095680;23;20178;-87
2023/01/29 01:59:29;;;;;;;11.77;9.33;;;;;;;2.70;82.25;96495.56;6096638;23;20196;-87
2023/01/29 02:10:50;;;;;;;14.23;7.90;;;;;;;2.61;81.54;96488.59;6034031;23;20204;-87
2023/01/29 02:13:22;;;;;;;9.30;7.63;;;;;;;2.62;81.18;96495.28;6005242;23;20262;-87
2023/01/29 02:15:50;;;;;;;10.80;8.87;;;;;;;2.64;81.07;96496.00;6030320;23;20224;-87
2023/01/29 02:18:27;;;;;;;14.90;8.27;;;;;;;2.62;81.14;96497.84;6066470;23;20224;-87
2023/01/29 02:21:39;;;;;;;29.10;21.27;;;;;;;2.64;81.00;96513.00;6066753;23;20168;-87
2023/01/29 02:24:49;;;;;;;30.87;21.57;;;;;;;2.65;80.57;96512.88;6066242;23;20173;-88
2023/01/29 02:27:41;;;;;;;16.97;12.37;;;;;;;2.65;79.92;96495.09;6035306;23;20560;-86
2023/01/29 02:30:26;;;;;;;10.97;8.63;;;;;;;2.59;79.05;96497.22;6067201;23;20263;-87
2023/01/29 02:33:08;;;;;;;8.03;7.07;;;;;;;2.53;79.15;96501.00;6066442;23;20157;-89
2023/01/29 02:35:45;;;;;;;8.70;7.20;;;;;;;2.54;78.46;96496.72;6065972;23;20617;-87
2023/01/29 02:41:11;;;;;;;8.43;7.03;;;;;;;2.35;78.12;96485.28;6063392;23;20173;-89
2023/01/29 02:43:49;;;;;;;7.93;7.13;;;;;;;2.31;77.83;96485.59;6066035;23;20168;-88
2023/01/29 02:49:34;;;;;;;7.50;6.30;;;;;;;2.12;78.86;96472.50;6065527;23;20192;-89
2023/01/29 02:52:24;;;;;;;9.63;7.37;;;;;;;2.19;79.40;96481.31;6065487;23;20204;-87
2023/01/29 02:55:25;;;;;;;8.07;6.80;;;;;;;2.17;78.89;96470.47;6066310;23;20546;-87
2023/01/29 02:58:16;;;;;;;8.67;6.50;;;;;;;2.13;78.96;96466.50;6066136;23;20193;-87
2023/01/29 03:00:58;;;;;;;;;;;;;;;;;;;;;
2023/01/29 03:03:45;;;;;;;8.53;6.70;;;;;;;2.17;78.70;96466.19;6040524;23;20224;-88
2023/01/29 03:06:24;;;;;;;8.57;6.97;;;;;;;2.23;78.28;96472.59;6067066;23;20161;-89
2023/01/29 03:09:01;;;;;;;9.37;6.80;;;;;;;2.34;78.29;96475.22;6066991;23;20193;-87
2023/01/29 03:11:46;;;;;;;7.10;6.17;;;;;;;2.40;78.02;96468.00;6076760;23;20196;-88
2023/01/29 03:14:22;;;;;;;7.50;6.13;;;;;;;2.47;77.39;96476.03;6095229;23;20652;-88
2023/01/29 03:16:55;;;;;;;6.97;6.00;;;;;;;2.52;77.21;96473.13;6094885;23;20171;-87
2023/01/29 03:19:43;;;;;;;6.80;5.23;;;;;;;2.54;76.67;96476.38;6094922;23;20275;-87
2023/01/29 03:22:26;;;;;;;;;;;;;;;;;;;;;
2023/01/29 03:33:54;;;;;;;6.87;6.17;;;;;;;2.54;76.64;96486.56;6094683;23;20163;-88
2023/01/29 03:36:36;;;;;;;6.73;6.03;;;;;;;2.53;76.43;96488.28;6093317;23;20555;-87
2023/01/29 03:39:10;;;;;;;7.07;6.23;;;;;;;2.53;76.26;96484.94;6095526;23;20200;-87
2023/01/29 03:41:55;;;;;;;7.30;6.30;;;;;;;2.54;76.13;96476.38;6094735;23;20184;-88
2023/01/29 03:44:45;;;;;;;6.80;6.10;;;;;;;2.41;75.82;96484.06;6094882;23;20176;-87
2023/01/29 03:47:20;;;;;;;7.30;6.60;;;;;;;2.34;75.43;96478.56;6094260;23;20565;-87
2023/01/29 03:50:06;;;;;;;6.37;5.77;;;;;;;2.37;75.73;96475.81;6093583;23;20196;-87
2023/01/29 03:52:45;;;;;;;7.60;6.13;;;;;;;2.37;76.19;96463.09;6094266;23;20172;-87
2023/01/29 03:55:38;;;;;;;7.47;6.43;;;;;;;2.45;75.94;96464.31;6095087;23;20647;-86
2023/01/29 03:58:39;;;;;;;6.30;5.60;;;;;;;2.43;74.94;96454.25;6094076;23;20224;-88
2023/01/29 04:01:27;;;;;;;6.90;6.20;;;;;;;2.46;75.22;96441.34;6094613;23;20540;-88
2023/01/29 04:04:05;;;;;;;6.10;5.50;;;;;;;2.46;74.42;96443.09;6080510;23;20231;-87
2023/01/29 04:06:39;;;;;;;6.27;5.67;;;;;;;2.40;74.01;96442.56;6095109;23;20163;-88
2023/01/29 04:09:26;;;;;;;;;;;;;;;;;;;;;
2023/01/29 04:12:11;;;;;;;6.60;5.90;;;;;;;2.40;74.92;96444.31;6094130;23;20278;-87
2023/01/29 04:14:47;;;;;;;7.17;6.13;;;;;;;2.45;74.81;96444.81;6092670;23;20172;-87
2023/01/29 04:17:31;;;;;;;6.87;6.00;;;;;;;2.54;74.73;96448.44;6093536;23;20187;-86
2023/01/29 04:20:15;;;;;;;6.60;5.93;;;;;;;2.57;74.65;96450.75;6095199;23;20608;-87
2023/01/29 04:22:48;;;;;;;7.00;6.23;;;;;;;2.52;73.62;96451.06;6094801;23;20160;-87
2023/01/29 04:25:32;;;;;;;6.90;6.20;;;;;;;2.50;74.33;96457.22;6094972;23;20164;-87
2023/01/29 04:28:07;;;;;;;7.13;6.43;;;;;;;2.51;74.40;96454.53;6094781;23;20199;-87
2023/01/29 04:30:46;;;;;;;7.83;6.13;;;;;;;2.52;74.70;96448.53;6094397;23;20180;-87
2023/01/29 04:33:38;;;;;;;7.77;6.03;;;;;;;2.54;74.92;96454.31;6094669;23;20200;-87
2023/01/29 04:36:23;;;;;;;8.13;6.97;;;;;;;2.49;75.04;96451.31;6095080;23;20723;-87
2023/01/29 04:39:26;;;;;;;7.53;6.70;;;;;;;2.50;75.37;96455.47;6096594;23;20195;-87
2023/01/29 04:42:07;;;;;;;8.77;6.60;;;;;;;2.53;75.56;96459.50;6086518;23;20172;-87
2023/01/29 04:44:52;;;;;;;8.27;6.57;;;;;;;2.56;75.81;96457.56;6096281;23;20601;-88
2023/01/29 04:47:37;;;;;;;7.00;6.30;;;;;;;2.58;75.41;96462.56;6096471;23;20495;-88
2023/01/29 04:50:15;;;;;;;8.10;6.73;;;;;;;2.55;75.66;96462.75;6095691;23;20873;-87
2023/01/29 04:53:03;;;;;;;7.83;7.00;;;;;;;2.54;75.85;96446.69;6096335;23;20219;-87
2023/01/29 04:55:42;;;;;;;7.77;6.97;;;;;;;2.51;75.39;96449.44;6095921;23;20232;-88
2023/01/29 04:58:14;;;;;;;8.30;7.10;;;;;;;2.54;75.82;96456.88;6095369;23;20224;-87
2023/01/29 05:00:46;;;;;;;7.67;6.90;;;;;;;2.52;75.60;96435.00;6096005;23;20529;-87
2023/01/29 05:03:15;;;;;;;7.73;6.83;;;;;;;2.54;75.49;96439.06;6096197;23;20168;-87
2023/01/29 05:05:51;;;;;;;8.03;7.20;;;;;;;2.56;75.26;96444.88;6095708;23;20184;-88
2023/01/29 05:08:23;;;;;;;8.47;6.80;;;;;;;2.59;75.65;96443.84;6095671;23;20275;-86
2023/01/29 05:10:55;;;;;;;7.57;6.77;;;;;;;2.58;75.29;96460.03;6095037;23;20181;-87
2023/01/29 05:13:29;;;;;;;8.67;6.97;;;;;;;2.60;75.37;96465.81;6088679;23;20203;-87
2023/01/29 05:16:11;;;;;;;8.13;7.33;;;;;;;2.60;75.07;96460.72;6095651;23;20156;-86
2023/01/29 05:18:42;;;;;;;8.27;6.50;;;;;;;2.62;75.49;96456.34;6095748;23;20193;-86
2023/01/29 05:21:10;;;;;;;8.17;7.27;;;;;;;2.63;75.24;96455.44;6095020;23;20160;-88
2023/01/29 05:23:38;;;;;;;7.07;6.37;;;;;;;2.63;75.07;96465.59;6095704;23;20208;-86
2023/01/29 05:29:08;;;;;;;9.40;7.23;;;;;;;2.63;75.11;96479.13;6095926;23;20702;-87
2023/01/29 05:31:45;;;;;;;8.23;7.00;;;;;;;2.60;75.07;96486.97;6096167;23;20519;-87
2023/01/29 05:34:14;;;;;;;7.13;6.40;;;;;;;2.59;75.08;96487.88;6095329;23;20164;-88
2023/01/29 05:36:40;;;;;;;7.70;6.90;;;;;;;2.55;74.82;96489.00;6094729;23;20204;-88
2023/01/29 05:39:09;;;;;;;8.20;6.93;;;;;;;2.49;74.57;96491.16;6096040;23;20192;-88
2023/01/29 05:41:45;;;;;;;7.47;6.67;;;;;;;2.46;75.03;96497.25;6095355;23;20172;-87
2023/01/29 05:44:16;;;;;;;8.07;7.03;;;;;;;2.47;75.23;96501.44;6095917;23;20164;-87
2023/01/29 05:46:48;;;;;;;7.93;6.97;;;;;;;2.51;75.14;96494.38;6095291;23;20204;-87
2023/01/29 05:49:16;;;;;;;9.80;6.97;;;;;;;2.53;74.76;96497.63;6095617;23;20204;-88
2023/01/29 05:51:43;;;;;;;8.10;7.27;;;;;;;2.57;75.01;96506.69;6094486;23;20200;-88
2023/01/29 05:54:48;;;;;;;8.30;6.30;;;;;;;2.51;74.55;96507.91;6101334;23;20239;-89
2023/01/29 05:57:15;;;;;;;8.17;7.03;;;;;;;2.52;74.65;96501.09;6078411;23;20179;-88
2023/01/29 06:02:29;;;;;;;8.43;7.03;;;;;;;2.51;74.31;96497.75;6066453;23;20176;-87
2023/01/29 06:04:58;;;;;;;11.87;8.60;;;;;;;2.44;74.55;96494.00;6095251;23;20207;-86
2023/01/29 06:07:25;;;;;;;10.10;8.13;;;;;;;2.45;75.27;96497.38;6095235;23;20180;-88
2023/01/29 06:09:51;;;;;;;9.00;7.53;;;;;;;2.50;75.03;96493.59;6095489;23;20196;-88
2023/01/29 06:12:24;;;;;;;8.53;7.63;;;;;;;2.52;75.17;96490.94;6094801;23;20204;-87
2023/01/29 06:17:39;;;;;;;9.73;7.93;;;;;;;2.56;74.91;96489.81;6092739;23;20235;-87
2023/01/29 06:20:07;;;;;;;8.40;7.50;;;;;;;2.57;74.57;96476.19;6094297;23;20172;-87
2023/01/29 06:22:51;;;;;;;8.27;7.27;;;;;;;2.59;74.51;96479.44;6094998;23;20568;-87
2023/01/29 06:25:26;;;;;;;8.70;7.80;;;;;;;2.60;74.63;96486.97;6095578;23;20196;-86
2023/01/29 06:28:01;;;;;;;8.97;7.37;;;;;;;2.60;74.75;96484.41;6096327;23;20550;-87
2023/01/29 06:30:40;;;;;;;8.07;6.97;;;;;;;2.57;73.97;96488.91;6095518;23;20163;-87
2023/01/29 06:33:08;;;;;;;8.97;7.37;;;;;;;2.58;74.11;96490.53;6096122;23;20206;-87
2023/01/29 06:35:35;;;;;;;8.97;7.73;;;;;;;2.59;73.84;96484.53;6095080;23;20183;-87
2023/01/29 06:38:04;;;;;;;8.53;7.53;;;;;;;2.56;74.20;96494.91;6095578;23;20207;-88
2023/01/29 06:40:40;;;;;;;9.10;7.30;;;;;;;2.54;74.24;96501.81;6097392;23;20181;-88
2023/01/29 06:43:14;;;;;;;8.63;7.37;;;;;;;2.55;73.92;96503.44;6096740;23;20174;-88
2023/01/29 06:45:51;;;;;;;8.97;7.47;;;;;;;2.54;74.34;96491.63;6095107;23;20250;-86
2023/01/29 06:48:18;;;;;;;9.07;7.80;;;;;;;2.41;74.12;96499.28;6096245;23;20711;-87
2023/01/29 06:50:48;;;;;;;9.27;7.87;;;;;;;2.43;74.46;96500.00;6094829;23;20195;-88
2023/01/29 06:53:15;;;;;;;9.30;7.50;;;;;;;2.47;74.36;96503.97;6094556;23;20188;-87
2023/01/29 06:55:44;;;;;;;8.93;7.77;;;;;;;2.45;74.23;96495.63;6094887;23;20257;-86
2023/01/29 06:58:15;;;;;;;9.80;7.87;;;;;;;2.50;73.79;96498.69;6095542;23;20200;-86
2023/01/29 07:00:41;;;;;;;9.17;7.70;;;;;;;2.53;74.26;96500.19;6094770;23;20231;-88
2023/01/29 07:03:13;;;;;;;9.37;8.13;;;;;;;2.51;74.28;96499.47;6094940;23;20176;-87
2023/01/29 07:05:44;;;;;;;9.17;8.17;;;;;;;2.45;74.35;96493.09;6096011;23;20192;-87
2023/01/29 07:08:11;;;;;;;8.17;7.30;;;;;;;2.41;74.50;96496.75;6095978;23;20196;-86
2023/01/29 07:10:44;;;;;;;8.43;7.60;;;;;;;2.38;75.04;96492.69;6095567;23;20511;-87
2023/01/29 07:13:10;;;;;;;9.17;7.97;;;;;;;2.37;74.82;96493.59;6095340;23;20196;-88
2023/01/29 07:15:43;;;;;;;9.23;7.70;;;;;;;2.41;74.68;96489.94;6096173;23;20199;-88
2023/01/29 07:31:31;;;;;;;7.20;6.43;;;;;;;2.20;73.97;96476.16;6006158;23;20260;-86
2023/01/29 07:38:00;;;;;;;8.53;7.10;;;;;;;2.11;74.40;96471.69;5940966;24;20182;-87
2023/01/29 07:40:46;;;;;;;;;;;;;;;;;;;;;
2023/01/29 07:43:15;;;;;;;8.77;7.47;;;;;;;2.23;74.08;96470.88;6098884;23;20215;-87
2023/01/29 07:45:42;;;;;;;9.47;7.60;;;;;;;2.28;74.14;96462.94;6099704;23;20183;-87
2023/01/29 07:51:47;;;;;;;9.37;7.77;;;;;;;2.14;73.93;96456.22;6071359;23;20169;-86
2023/01/29 07:54:14;;;;;;;8.90;7.87;;;;;;;2.20;73.98;96465.19;6096349;23;20715;-87
2023/01/29 07:56:42;;;;;;;10.20;8.10;;;;;;;2.22;73.63;96466.69;6099743;23;20180;-86
2023/01/29 07:59:08;;;;;;;9.70;8.00;;;;;;;2.17;74.41;96462.84;6104092;23;20683;-86
2023/01/29 08:01:35;;;;;;;9.97;8.50;;;;;;;2.22;74.08;96464.16;6104704;23;20179;-84
2023/01/29 08:04:01;;;;;;;10.63;8.27;;;;;;;2.25;74.32;96468.22;6104500;23;20200;-85
2023/01/29 08:06:29;;;;;;;10.23;8.57;;;;;;;2.32;74.03;96467.69;6106390;23;20183;-86
2023/01/29 08:08:58;;;;;;;10.27;7.97;;;;;;;2.25;73.48;96453.78;6106834;23;20251;-85
2023/01/29 08:11:30;;;;;;;10.00;8.17;;;;;;;2.30;73.01;96454.31;6106075;23;20180;-86
2023/01/29 08:14:01;;;;;;;8.27;7.10;;;;;;;2.28;72.09;96460.41;6108004;23;20579;-85
2023/01/29 08:16:29;;;;;;;10.60;8.00;;;;;;;2.25;72.44;96466.50;6106832;23;20176;-86
2023/01/29 08:18:55;;;;;;;8.80;7.40;;;;;;;2.26;72.28;96467.31;6104895;23;20196;-86
2023/01/29 08:21:22;;;;;;;9.40;8.07;;;;;;;2.31;73.05;96460.19;6104584;23;20176;-86
2023/01/29 08:23:48;;;;;;;8.60;7.63;;;;;;;2.31;71.73;96460.97;6106356;23;20180;-85
2023/01/29 08:26:15;;;;;;;8.97;7.33;;;;;;;2.25;71.49;96465.69;6105212;23;20667;-86
2023/01/29 08:28:41;;;;;;;9.50;7.63;;;;;;;2.32;72.26;96472.75;6104043;23;20200;-86
2023/01/29 08:31:14;;;;;;;8.93;7.47;;;;;;;2.37;71.61;96473.28;6104028;23;20176;-87
2023/01/29 08:33:40;;;;;;;8.73;7.03;;;;;;;2.40;70.48;96478.16;6102564;23;20188;-85
2023/01/29 08:36:08;;;;;;;8.63;6.90;;;;;;;2.34;71.15;96477.75;6101897;23;20180;-85
2023/01/29 08:38:35;;;;;;;8.13;7.07;;;;;;;2.38;70.48;96477.44;6101518;23;20200;-85
2023/01/29 08:41:02;;;;;;;7.97;6.87;;;;;;;2.34;70.74;96486.19;6100583;23;20254;-86
2023/01/29 08:43:28;;;;;;;8.93;7.33;;;;;;;2.34;71.09;96485.38;6102496;23;20203;-84
2023/01/29 08:45:55;;;;;;;8.37;7.07;;;;;;;2.33;71.29;96496.44;6102596;23;20176;-86
2023/01/29 08:48:24;;;;;;;10.80;8.03;;;;;;;2.41;71.13;96492.50;6101495;23;20198;-86
2023/01/29 08:50:50;;;;;;;8.60;7.00;;;;;;;2.46;71.56;96504.88;6103515;23;20208;-86
2023/01/29 08:53:18;;;;;;;8.13;6.80;;;;;;;2.49;70.62;96501.34;6102613;23;20200;-86
2023/01/29 08:55:46;;;;;;;7.90;6.70;;;;;;;2.54;70.41;96505.16;6102394;23;20186;-86
2023/01/29 08:58:12;;;;;;;7.23;6.47;;;;;;;2.57;69.93;96511.78;6102326;23;20196;-86
2023/01/29 09:00:39;;;;;;;8.40;6.90;;;;;;;2.53;69.73;96502.72;6103389;23;20563;-87
2023/01/29 09:03:06;;;;;;;9.00;7.27;;;;;;;2.59;70.21;96507.41;6102786;23;20176;-86
2023/01/29 09:05:36;;;;;;;8.40;6.87;;;;;;;2.64;69.88;96515.53;6103307;23;20176;-85
2023/01/29 09:08:08;;;;;;;8.33;6.77;;;;;;;2.62;69.87;96513.09;6103211;23;20261;-86
2023/01/29 09:10:35;;;;;;;7.60;6.43;;;;;;;2.61;69.76;96514.00;6102563;23;20168;-86
2023/01/29 09:13:02;;;;;;;8.50;6.90;;;;;;;2.64;69.43;96521.44;6103027;23;20196;-85
2023/01/29 09:15:28;;;;;;;8.20;7.20;;;;;;;2.59;69.81;96523.47;6103260;23;20164;-86
2023/01/29 09:17:58;;;;;;;9.90;7.60;;;;;;;2.60;69.58;96531.91;6100792;23;20176;-86
2023/01/29 09:20:24;;;;;;;7.87;6.63;;;;;;;2.66;69.95;96534.03;6102015;23;20708;-84
2023/01/29 09:22:55;;;;;;;8.33;7.33;;;;;;;2.65;70.06;96538.31;6101443;23;20177;-85
2023/01/29 09:25:21;;;;;;;10.37;7.67;;;;;;;2.62;70.07;96541.06;6101866;23;20366;-86
2023/01/29 09:27:54;;;;;;;9.47;8.03;;;;;;;2.62;70.08;96535.16;6102017;23;20521;-86
2023/01/29 09:30:20;;;;;;;9.00;7.83;;;;;;;2.66;69.97;96544.22;6102936;23;20184;-86
2023/01/29 09:32:47;;;;;;;11.30;7.90;;;;;;;2.65;70.06;96543.41;6100801;23;20278;-86
2023/01/29 09:35:13;;;;;;;10.17;8.80;;;;;;;2.56;71.21;96543.19;6100334;23;20180;-85
2023/01/29 09:37:40;;;;;;;10.00;8.33;;;;;;;2.51;71.44;96550.31;6101286;23;20207;-86
2023/01/29 09:40:18;;;;;;;9.97;8.70;;;;;;;2.49;72.02;96552.16;6101550;23;20207;-84
2023/01/29 09:42:51;;;;;;;10.37;8.57;;;;;;;2.47;72.53;96552.25;6101863;23;20161;-86
2023/01/29 09:45:23;;;;;;;10.27;8.80;;;;;;;2.52;72.14;96562.09;6101589;23;20164;-86
2023/01/29 09:47:51;;;;;;;8.70;7.73;;;;;;;2.57;71.91;96560.88;6102620;23;20160;-85
2023/01/29 09:50:22;;;;;;;9.93;8.73;;;;;;;2.63;71.28;96557.94;6100749;23;20176;-85
2023/01/29 09:52:54;;;;;;;8.70;7.80;;;;;;;2.62;71.47;96565.66;6100869;23;20515;-85
2023/01/29 09:55:24;;;;;;;9.53;8.13;;;;;;;2.66;71.48;96559.47;6102341;23;20356;-84
2023/01/29 09:57:54;;;;;;;9.87;8.33;;;;;;;2.62;71.86;96556.31;6100478;23;20182;-86
2023/01/29 10:00:26;;;;;;;9.90;7.73;;;;;;;2.66;71.49;96556.91;6101151;23;20199;-85
2023/01/29 10:03:08;;;;;;;9.50;8.27;;;;;;;2.73;71.29;96546.22;6099460;23;20160;-84
2023/01/29 10:05:56;;;;;;;10.07;8.60;;;;;;;2.80;71.24;96544.06;6101977;23;20191;-86
2023/01/29 10:08:40;;;;;;;9.00;8.00;;;;;;;2.73;69.86;96541.13;6101344;23;20255;-85
2023/01/29 10:11:17;;;;;;;9.27;7.77;;;;;;;2.68;69.59;96550.81;6101095;23;20161;-87
2023/01/29 10:13:54;;;;;;;9.33;8.17;;;;;;;2.69;70.23;96554.97;6103485;23;20215;-86
2023/01/29 10:16:40;;;;;;;9.57;8.07;;;;;;;2.59;70.10;96550.63;6103145;23;20160;-85
2023/01/29 10:19:20;;;;;;;8.80;7.87;;;;;;;2.64;70.65;96541.78;6102733;23;20200;-87
2023/01/29 10:21:59;;;;;;;8.80;7.60;;;;;;;2.63;70.89;96539.31;6101722;23;20250;-85
2023/01/29 10:24:36;;;;;;;10.83;8.93;;;;;;;2.66;71.00;96544.22;6101147;23;20179;-86
2023/01/29 10:27:13;;;;;;;10.93;9.30;;;;;;;2.62;71.16;96535.16;6100443;23;20160;-85
2023/01/29 10:29:42;;;;;;;10.80;9.43;;;;;;;2.72;71.10;96536.97;6099827;23;20207;-85
2023/01/29 10:32:14;;;;;;;9.20;8.03;;;;;;;2.73;71.28;96541.13;6101225;23;20183;-86
2023/01/29 10:34:45;;;;;;;8.57;7.67;;;;;;;2.76;71.23;96535.03;6099708;23;20541;-84
2023/01/29 10:37:17;;;;;;;8.80;7.90;;;;;;;2.75;70.63;96531.66;6099093;23;20164;-87
2023/01/29 10:39:44;;;;;;;9.37;8.27;;;;;;;2.81;70.86;96532.97;6100036;23;20203;-86
2023/01/29 10:42:26;;;;;;;8.20;6.23;;;;;;;3.41;100.00;96532.97;6096286;23;20180;-86
2023/01/29 10:45:06;;;;;;;9.17;8.03;;;;;;;3.51;75.56;96530.56;6100764;23;20235;-84
2023/01/29 10:47:54;;;;;;;9.70;7.97;;;;;;;3.41;75.11;96527.88;6099317;23;20172;-87
2023/01/29 10:50:34;;;;;;;9.43;7.70;;;;;;;3.32;72.32;96527.72;6099564;23;20765;-85
2023/01/29 10:53:16;;;;;;;9.13;7.80;;;;;;;3.06;69.30;96530.38;6099655;23;20643;-87
2023/01/29 10:55:52;;;;;;;194.03;124.30;;;;;;;3.05;71.60;96515.22;6101039;23;20161;-86
2023/01/29 10:58:30;;;;;;;49.80;36.40;;;;;;;3.04;70.58;96532.22;6101351;23;20192;-86
2023/01/29 11:00:58;;;;;;;13.17;11.73;;;;;;;2.98;71.32;96524.19;6100433;23;20166;-86
2023/01/29 11:03:26;;;;;;;10.60;9.03;;;;;;;2.99;71.05;96528.34;6100400;23;20172;-86
2023/01/29 11:05:59;;;;;;;9.60;8.47;;;;;;;3.01;71.25;96518.88;6100082;23;20183;-86
2023/01/29 11:08:34;;;;;;;9.27;8.00;;;;;;;2.95;70.58;96512.50;6100808;23;20200;-85
2023/01/29 11:11:08;;;;;;;10.57;8.13;;;;;;;3.01;71.32;96514.63;6101308;23;20193;-86
2023/01/29 11:13:41;;;;;;;9.70;7.63;;;;;;;3.06;70.80;96514.31;6101327;23;20187;-87
2023/01/29 11:16:09;;;;;;;8.27;7.47;;;;;;;3.07;70.18;96509.09;6100318;23;20243;-87
2023/01/29 11:18:51;;;;;;;8.70;7.80;;;;;;;3.09;69.94;96503.88;6100400;23;20199;-87
2023/01/29 11:21:21;;;;;;;10.27;7.60;;;;;;;3.02;69.41;96503.53;6100559;23;20176;-86
2023/01/29 11:23:48;;;;;;;8.77;7.20;;;;;;;3.04;69.90;96498.34;6099805;23;20547;-86
2023/01/29 11:26:22;;;;;;;9.93;7.33;;;;;;;3.01;69.31;96501.91;6100257;23;20180;-86
2023/01/29 11:28:53;;;;;;;9.47;8.47;;;;;;;2.99;69.38;96496.09;6101666;23;20497;-86
2023/01/29 11:31:24;;;;;;;8.20;7.37;;;;;;;2.92;68.79;96489.81;6100733;23;20171;-86
2023/01/29 11:33:55;;;;;;;8.87;7.97;;;;;;;2.97;69.69;96492.84;6100811;23;20563;-85
2023/01/29 11:36:31;;;;;;;10.80;8.23;;;;;;;3.01;69.59;96490.91;6097725;23;20195;-86
2023/01/29 11:39:13;;;;;;;8.73;7.67;;;;;;;3.05;69.33;96487.22;6102605;23;20286;-86
2023/01/29 11:41:53;;;;;;;9.33;7.87;;;;;;;3.07;69.59;96493.84;6100800;23;20708;-86
2023/01/29 11:44:27;;;;;;;9.30;8.20;;;;;;;3.02;69.37;96492.53;6102974;23;20259;-86
2023/01/29 11:46:54;;;;;;;8.90;8.00;;;;;;;3.03;68.78;96489.88;6101989;23;20212;-85
2023/01/29 11:49:27;;;;;;;8.70;7.80;;;;;;;2.98;68.80;96476.66;6101092;23;20546;-86
2023/01/29 11:51:57;;;;;;;8.30;7.50;;;;;;;2.99;68.35;96464.75;6101737;23;20528;-86
2023/01/29 11:54:27;;;;;;;8.43;7.63;;;;;;;2.95;68.39;96448.09;6101405;23;20894;-85
2023/01/29 11:56:55;;;;;;;7.90;7.10;;;;;;;2.99;68.25;96434.25;6100993;23;20172;-86
2023/01/29 11:59:36;;;;;;;9.00;8.07;;;;;;;2.84;68.02;96420.06;6100046;23;20303;-86
2023/01/29 12:02:13;;;;;;;8.80;7.80;;;;;;;2.82;68.38;96415.09;6098112;23;20165;-86
2023/01/29 12:04:40;;;;;;;8.97;8.03;;;;;;;2.85;68.82;96412.34;6098710;23;20180;-86
2023/01/29 12:07:12;;;;;;;9.63;8.10;;;;;;;2.77;68.88;96407.78;6098005;23;20206;-84
2023/01/29 12:09:40;;;;;;;35.80;21.57;;;;;;;3.36;100.00;96410.31;6103650;23;20200;-83
2023/01/29 12:12:29;;;;;;;28.30;18.83;;;;;;;4.01;92.20;96414.81;6103312;23;20716;-84
2023/01/29 12:15:16;;;;;;;8.73;7.83;;;;;;;4.08;70.06;96403.22;6084004;23;20180;-85
2023/01/29 12:17:48;;;;;;;11.53;8.67;;;;;;;3.85;67.88;96399.03;6100698;23;20164;-87
2023/01/29 12:20:21;;;;;;;9.03;8.13;;;;;;;3.73;67.88;96410.97;6099154;23;20164;-87
2023/01/29 12:22:57;;;;;;;9.20;8.30;;;;;;;3.57;68.11;96410.47;6098095;23;20161;-87
2023/01/29 12:25:39;;;;;;;12.50;9.23;;;;;;;3.36;68.52;96417.13;6100174;23;20160;-86
2023/01/29 12:28:17;;;;;;;9.73;8.70;;;;;;;3.35;68.60;96421.41;6097862;23;20200;-87
2023/01/29 12:30:53;;;;;;;11.07;8.50;;;;;;;3.28;68.13;96427.84;6099235;23;20156;-87
2023/01/29 12:33:31;;;;;;;9.90;8.90;;;;;;;3.13;68.57;96434.88;6095993;23;20244;-86
2023/01/29 12:36:07;;;;;;;11.13;9.23;;;;;;;3.12;69.21;96430.69;6095665;23;20165;-86
2023/01/29 12:38:35;;;;;;;10.20;8.77;;;;;;;2.98;68.17;96424.97;6096582;23;20198;-86
2023/01/29 12:41:16;;;;;;;13.40;11.80;;;;;;;3.05;69.08;96421.09;6096429;23;20180;-86
2023/01/29 12:43:47;;;;;;;26.23;19.43;;;;;;;3.05;68.84;96411.72;6095857;23;20160;-87
2023/01/29 12:46:22;;;;;;;17.67;13.50;;;;;;;3.12;69.38;96412.06;6096070;23;20616;-87
2023/01/29 12:48:50;;;;;;;12.80;10.77;;;;;;;3.17;68.84;96401.59;6096056;23;20200;-88
2023/01/29 12:51:20;;;;;;;10.27;9.17;;;;;;;3.19;68.14;96405.63;6095426;23;20180;-88
2023/01/29 12:53:52;;;;;;;13.13;9.33;;;;;;;3.05;68.73;96400.75;6095584;23;20192;-86
2023/01/29 12:56:28;;;;;;;12.03;8.80;;;;;;;3.02;68.87;96391.59;6097822;23;20161;-86
2023/01/29 12:58:57;;;;;;;10.60;8.67;;;;;;;3.07;69.39;96388.72;6098489;23;20202;-87
2023/01/29 13:01:39;;;;;;;9.57;8.37;;;;;;;3.12;68.81;96381.56;6098514;23;20210;-87
2023/01/29 13:04:11;;;;;;;9.87;8.37;;;;;;;3.13;68.65;96378.91;6098499;23;20161;-86
2023/01/29 13:06:41;;;;;;;13.43;8.67;;;;;;;3.13;68.65;96371.25;6097603;23;20240;-87
2023/01/29 13:09:13;;;;;;;10.03;8.93;;;;;;;3.06;68.58;96361.66;6097340;23;20531;-87
2023/01/29 13:11:48;;;;;;;9.80;8.20;;;;;;;3.04;68.62;96364.31;6098684;23;20188;-87
2023/01/29 13:14:24;;;;;;;9.23;8.03;;;;;;;3.00;67.86;96357.81;6098385;23;20212;-88
2023/01/29 13:17:02;;;;;;;8.63;7.73;;;;;;;2.94;68.30;96345.53;6097969;23;20781;-86
2023/01/29 13:19:32;;;;;;;9.27;8.13;;;;;;;2.93;68.12;96343.09;6096773;23;20224;-88
2023/01/29 13:22:04;;;;;;;10.27;8.53;;;;;;;2.97;68.11;96339.41;6098072;23;20160;-86
2023/01/29 13:24:39;;;;;;;9.60;8.57;;;;;;;2.98;68.41;96334.22;6097780;23;20161;-88
2023/01/29 13:27:06;;;;;;;9.00;8.10;;;;;;;2.89;68.22;96341.69;6098047;23;20160;-86
2023/01/29 13:29:33;;;;;;;9.33;8.10;;;;;;;2.89;68.47;96341.69;6099024;23;20220;-86